Time;durP1;ratioP1;P1;durP2;ratioP2;P2;SDS_P1;SDS_P2;PMS_P1;PMS_P2;Temp;Humidity;BMP_temperature;BMP_pressure;BME280_temperature;BME280_humidity;BME280_pressure;Samples;Min_cycle;Max_cycle;Signal;HPM_P1;HPM_P2
2023/07/06 00:01:40;;;;;;;10.13;6.22;;;;;;;;;;4969485;28;20046;-65
2023/07/06 00:04:06;;;;;;;11.98;6.10;;;;;;;;;;4968192;28;20046;-66
2023/07/06 00:06:32;;;;;;;9.27;5.95;;;;;;;;;;4971227;28;20034;-65
2023/07/06 00:08:59;;;;;;;11.57;5.07;;;;;;;;;;4962570;28;20121;-65
2023/07/06 00:11:26;;;;;;;11.68;5.60;;;;;;;;;;4968954;28;20433;-69
2023/07/06 00:13:52;;;;;;;9.98;4.75;;;;;;;;;;4959688;28;20047;-64
2023/07/06 00:16:21;;;;;;;11.20;5.55;;;;;;;;;;4971259;28;20046;-64
2023/07/06 00:18:47;;;;;;;9.20;4.75;;;;;;;;;;4965451;28;20049;-67
2023/07/06 00:21:13;;;;;;;14.18;5.97;;;;;;;;;;4967092;28;20408;-65
2023/07/06 00:23:43;;;;;;;11.25;5.50;;;;;;;;;;4969282;28;20439;-65
2023/07/06 00:26:09;;;;;;;9.35;5.60;;;;;;;;;;4969729;28;20065;-66
2023/07/06 00:28:35;;;;;;;11.30;5.50;;;;;;;;;;4965746;28;20038;-65
2023/07/06 00:31:10;;;;;;;9.82;4.93;;;;;;;;;;4966981;28;20503;-65
2023/07/06 00:33:37;;;;;;;9.70;5.03;;;;;;;;;;4970348;28;20053;-65
2023/07/06 00:36:04;;;;;;;12.05;5.80;;;;;;;;;;4965666;28;20046;-65
2023/07/06 00:38:30;;;;;;;12.55;5.82;;;;;;;;;;4967242;28;20042;-66
2023/07/06 00:40:57;;;;;;;10.65;5.50;;;;;;;;;;4968660;28;20079;-65
2023/07/06 00:43:28;;;;;;;10.15;5.72;;;;;;;;;;4965835;28;20070;-64
2023/07/06 00:45:56;;;;;;;8.73;5.40;;;;;;;;;;4962697;28;20039;-68
2023/07/06 00:48:28;;;;;;;8.70;5.10;;;;;;;;;;4970531;28;20037;-65
2023/07/06 00:50:55;;;;;;;10.93;5.22;;;;;;;;;;4963821;28;20090;-65
2023/07/06 00:53:23;;;;;;;8.15;4.80;;;;;;;;;;4962711;28;20047;-65
2023/07/06 00:55:49;;;;;;;9.88;5.28;;;;;;;;;;4967985;28;20054;-65
2023/07/06 00:58:18;;;;;;;10.50;5.60;;;;;;;;;;4969950;28;20034;-66
2023/07/06 01:00:47;;;;;;;8.32;5.57;;;;;;;;;;4969921;28;20097;-66
2023/07/06 01:03:19;;;;;;;10.90;5.22;;;;;;;;;;4967358;28;20061;-66
2023/07/06 01:05:45;;;;;;;12.20;6.35;;;;;;;;;;4968706;28;20130;-68
2023/07/06 01:08:14;;;;;;;10.10;5.53;;;;;;;;;;4970207;28;20117;-66
2023/07/06 01:10:41;;;;;;;13.15;5.85;;;;;;;;;;4968897;28;20047;-65
2023/07/06 01:13:07;;;;;;;11.63;5.78;;;;;;;;;;4970023;28;20046;-65
2023/07/06 01:15:37;;;;;;;10.40;6.00;;;;;;;;;;4968782;28;20113;-65
2023/07/06 01:18:16;;;;;;;10.10;5.78;;;;;;;;;;4966083;28;20039;-65
2023/07/06 01:21:06;;;;;;;10.95;6.10;;;;;;;;;;4969068;28;20046;-66
2023/07/06 01:23:51;;;;;;;10.65;6.20;;;;;;;;;;4962650;28;20047;-67
2023/07/06 01:26:26;;;;;;;9.60;5.68;;;;;;;;;;4970539;28;20058;-65
2023/07/06 01:29:04;;;;;;;9.85;5.90;;;;;;;;;;4973557;28;20038;-64
2023/07/06 01:31:49;;;;;;;12.45;6.05;;;;;;;;;;4968003;28;20043;-68
2023/07/06 01:34:15;;;;;;;;;;;;;;;;;;4973505;28;20388;-65
2023/07/06 01:36:46;;;;;;;9.25;5.57;;;;;;;;;;4970853;28;20041;-68
2023/07/06 01:39:23;;;;;;;11.98;6.22;;;;;;;;;;4972875;28;20118;-65
2023/07/06 01:42:09;;;;;;;10.43;6.18;;;;;;;;;;4971707;28;20047;-65
2023/07/06 01:44:36;;;;;;;11.32;6.22;;;;;;;;;;4969377;28;20039;-65
2023/07/06 01:47:03;;;;;;;11.27;6.10;;;;;;;;;;4969564;28;20050;-66
2023/07/06 01:49:29;;;;;;;10.73;5.68;;;;;;;;;;4972761;28;20050;-65
2023/07/06 01:52:05;;;;;;;12.05;5.25;;;;;;;;;;4972424;28;20500;-66
2023/07/06 01:54:35;;;;;;;11.40;6.57;;;;;;;;;;4971714;28;20070;-65
2023/07/06 01:57:05;;;;;;;9.63;5.32;;;;;;;;;;4957340;28;20035;-65
2023/07/06 01:59:32;;;;;;;12.48;5.78;;;;;;;;;;4967608;28;20050;-65
2023/07/06 02:02:01;;;;;;;10.55;5.78;;;;;;;;;;4970521;28;20031;-67
2023/07/06 02:04:31;;;;;;;13.45;5.97;;;;;;;;;;4968498;28;20073;-66
2023/07/06 02:07:00;;;;;;;9.80;5.50;;;;;;;;;;4973445;28;20038;-65
2023/07/06 02:09:26;;;;;;;10.48;5.85;;;;;;;;;;4972598;28;20579;-66
2023/07/06 02:11:53;;;;;;;14.38;6.85;;;;;;;;;;4972993;28;20043;-65
2023/07/06 02:14:20;;;;;;;10.57;5.72;;;;;;;;;;4965540;28;20097;-67
2023/07/06 02:16:46;;;;;;;10.43;5.90;;;;;;;;;;4973389;28;20459;-66
2023/07/06 02:19:12;;;;;;;9.57;5.78;;;;;;;;;;4972393;28;20126;-65
2023/07/06 02:21:39;;;;;;;12.75;5.63;;;;;;;;;;4970162;28;20043;-65
2023/07/06 02:24:06;;;;;;;9.10;6.05;;;;;;;;;;4972585;28;20108;-65
2023/07/06 02:26:32;;;;;;;10.77;6.10;;;;;;;;;;4971710;28;20042;-64
2023/07/06 02:29:01;;;;;;;10.10;5.93;;;;;;;;;;4971310;28;20155;-65
2023/07/06 02:31:27;;;;;;;10.40;5.70;;;;;;;;;;4972825;28;20047;-64
2023/07/06 02:33:53;;;;;;;12.00;6.40;;;;;;;;;;4972571;28;20043;-63
2023/07/06 02:36:19;;;;;;;8.23;4.95;;;;;;;;;;4968360;28;20130;-63
2023/07/06 02:38:46;;;;;;;10.90;5.60;;;;;;;;;;4970384;28;20047;-63
2023/07/06 02:41:12;;;;;;;8.73;5.72;;;;;;;;;;4970137;28;20038;-63
2023/07/06 02:43:38;;;;;;;9.52;5.60;;;;;;;;;;4964336;28;20054;-64
2023/07/06 02:46:04;;;;;;;9.65;5.80;;;;;;;;;;4972929;28;20113;-64
2023/07/06 02:48:30;;;;;;;8.38;5.50;;;;;;;;;;4969133;28;20045;-64
2023/07/06 02:50:57;;;;;;;11.57;5.97;;;;;;;;;;4966602;28;20031;-64
2023/07/06 02:53:24;;;;;;;13.27;6.63;;;;;;;;;;4971437;28;20740;-65
2023/07/06 02:55:51;;;;;;;10.75;5.55;;;;;;;;;;4969653;28;20034;-64
2023/07/06 02:58:18;;;;;;;8.35;5.30;;;;;;;;;;4968105;28;20513;-67
2023/07/06 03:00:49;;;;;;;10.88;6.60;;;;;;;;;;4965201;28;20409;-64
2023/07/06 03:03:15;;;;;;;8.35;4.93;;;;;;;;;;4961954;28;20046;-64
2023/07/06 03:05:46;;;;;;;12.32;5.88;;;;;;;;;;4968680;28;20038;-65
2023/07/06 03:08:12;;;;;;;12.50;6.10;;;;;;;;;;4972734;28;20101;-66
2023/07/06 03:10:38;;;;;;;10.02;6.00;;;;;;;;;;4970379;28;20061;-66
2023/07/06 03:13:06;;;;;;;9.82;5.85;;;;;;;;;;4970063;28;20505;-66
2023/07/06 03:15:32;;;;;;;11.43;5.78;;;;;;;;;;4969146;28;20050;-64
2023/07/06 03:17:58;;;;;;;10.10;5.43;;;;;;;;;;4962145;28;20577;-64
2023/07/06 03:20:24;;;;;;;9.07;5.82;;;;;;;;;;4968381;28;20042;-64
2023/07/06 03:22:51;;;;;;;8.93;5.28;;;;;;;;;;4980546;28;20166;-64
2023/07/06 03:25:27;;;;;;;12.15;5.95;;;;;;;;;;4966997;28;20070;-64
2023/07/06 03:27:53;;;;;;;9.30;5.63;;;;;;;;;;4965851;28;20487;-66
2023/07/06 03:30:20;;;;;;;10.00;6.32;;;;;;;;;;4965051;28;20039;-65
2023/07/06 03:32:46;;;;;;;9.65;6.05;;;;;;;;;;4967999;28;20109;-64
2023/07/06 03:35:13;;;;;;;13.23;6.30;;;;;;;;;;4971077;28;20039;-64
2023/07/06 03:37:41;;;;;;;11.52;6.40;;;;;;;;;;4970176;28;20057;-64
2023/07/06 03:40:11;;;;;;;13.07;6.88;;;;;;;;;;4964573;28;20043;-64
2023/07/06 03:42:41;;;;;;;9.90;6.32;;;;;;;;;;4971763;28;20034;-64
2023/07/06 03:45:08;;;;;;;10.65;6.07;;;;;;;;;;4969102;28;20031;-65
2023/07/06 03:47:37;;;;;;;9.65;6.22;;;;;;;;;;4971475;28;20604;-65
2023/07/06 03:50:03;;;;;;;11.85;6.15;;;;;;;;;;4963070;28;20541;-65
2023/07/06 03:52:29;;;;;;;13.05;7.13;;;;;;;;;;4971639;28;20078;-65
2023/07/06 03:54:59;;;;;;;11.07;6.50;;;;;;;;;;4968059;28;20408;-64
2023/07/06 03:57:27;;;;;;;11.82;6.70;;;;;;;;;;4964753;28;20054;-65
2023/07/06 03:59:53;;;;;;;10.75;6.35;;;;;;;;;;4970599;28;20528;-67
2023/07/06 04:02:20;;;;;;;11.32;6.75;;;;;;;;;;4968146;28;20034;-65
2023/07/06 04:04:46;;;;;;;10.43;6.85;;;;;;;;;;4962874;28;20082;-65
2023/07/06 04:07:12;;;;;;;11.20;6.63;;;;;;;;;;4964233;28;20437;-65
2023/07/06 04:09:39;;;;;;;10.45;6.43;;;;;;;;;;4971269;28;20454;-65
2023/07/06 04:12:08;;;;;;;13.63;6.70;;;;;;;;;;4960402;28;20051;-64
2023/07/06 04:14:34;;;;;;;13.93;7.80;;;;;;;;;;4970450;28;20039;-65
2023/07/06 04:17:01;;;;;;;11.73;7.10;;;;;;;;;;4964201;28;20087;-65
2023/07/06 04:19:28;;;;;;;10.98;6.90;;;;;;;;;;4969889;28;20051;-65
2023/07/06 04:21:56;;;;;;;15.13;7.90;;;;;;;;;;4961198;28;20045;-65
2023/07/06 04:24:24;;;;;;;13.98;8.45;;;;;;;;;;4968705;28;20473;-67
2023/07/06 04:26:51;;;;;;;13.50;8.00;;;;;;;;;;4966858;28;20386;-65
2023/07/06 04:29:17;;;;;;;14.98;8.35;;;;;;;;;;4966467;28;20042;-66
2023/07/06 04:31:44;;;;;;;17.00;8.50;;;;;;;;;;4970422;28;20127;-65
2023/07/06 04:34:10;;;;;;;16.05;8.40;;;;;;;;;;4965174;28;21200;-66
2023/07/06 04:36:36;;;;;;;17.15;8.20;;;;;;;;;;4970883;28;20418;-66
2023/07/06 04:39:07;;;;;;;15.18;7.72;;;;;;;;;;4963250;28;20035;-65
2023/07/06 04:41:33;;;;;;;17.98;8.55;;;;;;;;;;4968547;28;20110;-68
2023/07/06 04:43:59;;;;;;;15.63;9.18;;;;;;;;;;4961682;28;20119;-66
2023/07/06 04:46:25;;;;;;;15.77;8.63;;;;;;;;;;4968510;28;20053;-65
2023/07/06 04:48:53;;;;;;;14.88;9.13;;;;;;;;;;4963784;28;20042;-66
2023/07/06 04:51:19;;;;;;;14.45;8.75;;;;;;;;;;4968211;28;20517;-67
2023/07/06 04:53:48;;;;;;;17.77;9.63;;;;;;;;;;4953231;28;20130;-68
2023/07/06 04:56:14;;;;;;;16.10;8.95;;;;;;;;;;4955978;28;20057;-68
2023/07/06 04:58:41;;;;;;;17.10;8.57;;;;;;;;;;4969260;28;20460;-67
2023/07/06 05:01:07;;;;;;;17.38;8.77;;;;;;;;;;4954588;28;20035;-67
2023/07/06 05:03:35;;;;;;;19.48;9.30;;;;;;;;;;4963834;28;20051;-67
2023/07/06 05:06:12;;;;;;;18.60;8.98;;;;;;;;;;4959320;28;20390;-66
2023/07/06 05:08:44;;;;;;;15.68;9.05;;;;;;;;;;4960871;28;20484;-66
2023/07/06 05:11:10;;;;;;;17.35;9.80;;;;;;;;;;4965972;28;20038;-66
2023/07/06 05:13:37;;;;;;;17.35;10.13;;;;;;;;;;4957076;28;20137;-67
2023/07/06 05:16:03;;;;;;;18.05;9.70;;;;;;;;;;4959538;28;20082;-68
2023/07/06 05:18:29;;;;;;;25.30;10.25;;;;;;;;;;4956633;28;20051;-67
2023/07/06 05:20:57;;;;;;;16.25;9.20;;;;;;;;;;4965213;28;20102;-69
2023/07/06 05:23:25;;;;;;;16.13;9.48;;;;;;;;;;4967778;28;20060;-66
2023/07/06 05:26:03;;;;;;;17.40;10.18;;;;;;;;;;4964097;28;20148;-65
2023/07/06 05:28:29;;;;;;;15.15;9.23;;;;;;;;;;4967888;28;20102;-66
2023/07/06 05:30:56;;;;;;;18.13;9.48;;;;;;;;;;4970154;28;20053;-66
2023/07/06 05:33:22;;;;;;;20.08;9.52;;;;;;;;;;4967872;28;20158;-65
2023/07/06 05:35:48;;;;;;;19.27;9.25;;;;;;;;;;4971227;28;20070;-65
2023/07/06 05:38:14;;;;;;;17.25;9.80;;;;;;;;;;4970572;28;20086;-65
2023/07/06 05:40:41;;;;;;;17.40;9.80;;;;;;;;;;4969518;28;20047;-65
2023/07/06 05:43:07;;;;;;;19.17;9.40;;;;;;;;;;4970590;28;20500;-66
2023/07/06 05:45:33;;;;;;;18.33;10.20;;;;;;;;;;4966737;28;20456;-66
2023/07/06 05:48:00;;;;;;;23.15;11.65;;;;;;;;;;4961441;28;20090;-66
2023/07/06 05:50:26;;;;;;;14.40;9.70;;;;;;;;;;4962073;28;20126;-66
2023/07/06 05:52:52;;;;;;;19.45;9.38;;;;;;;;;;4969181;28;20129;-66
2023/07/06 05:55:18;;;;;;;18.35;9.90;;;;;;;;;;4969553;28;20194;-66
2023/07/06 05:57:45;;;;;;;14.63;8.93;;;;;;;;;;4973363;28;20049;-66
2023/07/06 06:00:15;;;;;;;18.00;8.88;;;;;;;;;;4969989;28;20042;-65
2023/07/06 06:02:44;;;;;;;19.67;8.95;;;;;;;;;;4970666;28;20047;-66
2023/07/06 06:05:13;;;;;;;16.70;8.93;;;;;;;;;;4971533;28;20051;-66
2023/07/06 06:07:40;;;;;;;17.38;8.07;;;;;;;;;;4965633;28;20965;-69
2023/07/06 06:10:06;;;;;;;16.17;7.95;;;;;;;;;;4972473;28;20045;-68
2023/07/06 06:12:33;;;;;;;21.17;11.40;;;;;;;;;;4973006;28;20484;-67
2023/07/06 06:14:59;;;;;;;18.60;8.45;;;;;;;;;;4973563;28;20050;-66
2023/07/06 06:17:28;;;;;;;15.85;8.00;;;;;;;;;;4973301;28;20035;-66
2023/07/06 06:19:54;;;;;;;17.50;7.70;;;;;;;;;;4972917;28;20700;-66
2023/07/06 06:22:20;;;;;;;18.55;7.30;;;;;;;;;;4973466;28;20043;-66
2023/07/06 06:24:46;;;;;;;15.10;7.05;;;;;;;;;;4971522;28;20039;-66
2023/07/06 06:27:17;;;;;;;12.32;5.68;;;;;;;;;;4971665;28;20034;-66
2023/07/06 06:29:43;;;;;;;13.27;6.88;;;;;;;;;;4972119;28;20047;-66
2023/07/06 06:32:10;;;;;;;15.73;7.13;;;;;;;;;;4973073;28;20386;-66
2023/07/06 06:34:37;;;;;;;12.10;6.28;;;;;;;;;;4971534;28;20393;-66
2023/07/06 06:37:04;;;;;;;13.52;6.22;;;;;;;;;;4971773;28;20485;-65
2023/07/06 06:39:31;;;;;;;15.65;5.90;;;;;;;;;;4973087;28;20070;-67
2023/07/06 06:41:58;;;;;;;9.27;4.38;;;;;;;;;;4973249;28;20034;-66
2023/07/06 06:44:25;;;;;;;9.95;4.03;;;;;;;;;;4971417;28;20145;-65
2023/07/06 06:46:51;;;;;;;12.77;4.70;;;;;;;;;;4973195;28;20038;-66
2023/07/06 06:49:17;;;;;;;11.80;3.47;;;;;;;;;;4971295;28;20047;-66
2023/07/06 06:51:44;;;;;;;11.85;3.35;;;;;;;;;;4973065;28;20444;-65
2023/07/06 06:54:10;;;;;;;12.90;4.05;;;;;;;;;;4972621;28;20034;-65
2023/07/06 06:56:38;;;;;;;8.98;3.05;;;;;;;;;;4973058;28;20523;-66
2023/07/06 06:59:04;;;;;;;6.47;2.90;;;;;;;;;;4972306;28;20413;-68
2023/07/06 07:01:31;;;;;;;6.50;3.13;;;;;;;;;;4972397;28;20035;-65
2023/07/06 07:03:59;;;;;;;8.80;3.22;;;;;;;;;;4972511;28;20038;-66
2023/07/06 07:06:28;;;;;;;8.88;2.92;;;;;;;;;;4972626;28;20043;-65
2023/07/06 07:08:54;;;;;;;7.70;2.55;;;;;;;;;;4971337;28;20035;-65
2023/07/06 07:11:21;;;;;;;6.70;2.22;;;;;;;;;;4968527;28;20045;-65
2023/07/06 07:13:48;;;;;;;6.13;2.28;;;;;;;;;;4970016;28;20038;-65
2023/07/06 07:16:15;;;;;;;7.35;2.22;;;;;;;;;;4963163;28;20382;-65
2023/07/06 07:18:43;;;;;;;7.15;2.40;;;;;;;;;;4965338;28;20062;-64
2023/07/06 07:21:10;;;;;;;6.60;1.88;;;;;;;;;;4970533;28;20050;-65
2023/07/06 07:23:42;;;;;;;6.22;2.00;;;;;;;;;;4972281;28;20145;-65
2023/07/06 07:26:12;;;;;;;6.55;2.30;;;;;;;;;;4971039;28;20549;-64
2023/07/06 07:28:38;;;;;;;7.28;2.33;;;;;;;;;;4970588;28;20137;-65
2023/07/06 07:31:07;;;;;;;4.18;1.67;;;;;;;;;;4971143;28;20057;-67
2023/07/06 07:33:34;;;;;;;7.18;1.83;;;;;;;;;;4964284;28;20408;-65
2023/07/06 07:36:01;;;;;;;5.53;1.85;;;;;;;;;;4970770;28;20038;-66
2023/07/06 07:38:27;;;;;;;5.32;1.65;;;;;;;;;;4965163;28;20473;-65
2023/07/06 07:40:57;;;;;;;4.47;1.50;;;;;;;;;;4967056;28;20043;-66
2023/07/06 07:43:25;;;;;;;4.82;1.92;;;;;;;;;;4961369;28;20070;-68
2023/07/06 07:45:53;;;;;;;3.90;1.40;;;;;;;;;;4969467;28;20046;-65
2023/07/06 07:48:19;;;;;;;4.72;1.35;;;;;;;;;;4967695;28;20129;-64
2023/07/06 07:50:58;;;;;;;5.55;1.55;;;;;;;;;;4961463;28;20121;-65
2023/07/06 07:53:25;;;;;;;4.63;1.65;;;;;;;;;;4956863;28;20039;-66
2023/07/06 07:55:53;;;;;;;7.05;1.98;;;;;;;;;;4971734;28;20062;-65
2023/07/06 07:58:19;;;;;;;7.22;1.95;;;;;;;;;;4970808;28;20039;-65
2023/07/06 08:00:49;;;;;;;5.22;1.80;;;;;;;;;;4969769;28;20078;-64
2023/07/06 08:03:15;;;;;;;4.70;1.70;;;;;;;;;;4970461;28;20098;-66
2023/07/06 08:05:42;;;;;;;7.60;2.10;;;;;;;;;;4970820;28;20553;-66
2023/07/06 08:08:10;;;;;;;7.30;2.03;;;;;;;;;;4970420;28;20038;-65
2023/07/06 08:10:40;;;;;;;4.75;1.77;;;;;;;;;;4966355;28;20082;-65
2023/07/06 08:13:09;;;;;;;4.07;1.80;;;;;;;;;;4971272;28;20081;-65
2023/07/06 08:15:37;;;;;;;5.05;1.83;;;;;;;;;;4970732;28;20047;-65
2023/07/06 08:18:03;;;;;;;5.60;1.80;;;;;;;;;;4971203;28;20050;-66
2023/07/06 08:20:30;;;;;;;5.05;1.90;;;;;;;;;;4970805;28;20473;-64
2023/07/06 08:23:00;;;;;;;6.70;2.00;;;;;;;;;;4971475;28;20035;-65
2023/07/06 08:25:27;;;;;;;4.90;1.92;;;;;;;;;;4970824;28;20061;-66
2023/07/06 08:27:54;;;;;;;7.63;2.05;;;;;;;;;;4970391;28;20057;-64
2023/07/06 08:30:21;;;;;;;5.78;1.80;;;;;;;;;;4970874;28;20074;-64
2023/07/06 08:32:51;;;;;;;5.35;2.00;;;;;;;;;;4971469;28;20416;-65
2023/07/06 08:35:17;;;;;;;9.23;2.13;;;;;;;;;;4953352;28;20551;-64
2023/07/06 08:37:44;;;;;;;5.97;1.77;;;;;;;;;;4971554;28;20502;-64
2023/07/06 08:40:19;;;;;;;5.72;1.80;;;;;;;;;;4969664;28;20121;-64
2023/07/06 08:42:46;;;;;;;4.50;1.83;;;;;;;;;;4970712;28;20039;-64
2023/07/06 08:45:27;;;;;;;4.68;2.00;;;;;;;;;;4970590;28;20042;-64
2023/07/06 08:47:56;;;;;;;7.30;1.85;;;;;;;;;;4975678;28;20113;-66
2023/07/06 08:50:32;;;;;;;4.90;1.90;;;;;;;;;;4959639;28;20039;-65
2023/07/06 08:52:58;;;;;;;5.35;1.67;;;;;;;;;;4966830;28;20042;-65
2023/07/06 08:55:26;;;;;;;5.68;1.88;;;;;;;;;;4965395;28;20102;-65
2023/07/06 08:57:53;;;;;;;4.78;1.95;;;;;;;;;;4964051;28;20550;-65
2023/07/06 09:00:21;;;;;;;5.93;2.30;;;;;;;;;;4969841;28;20078;-65
2023/07/06 09:02:48;;;;;;;7.00;2.30;;;;;;;;;;4970131;28;20412;-64
2023/07/06 09:05:15;;;;;;;7.93;2.08;;;;;;;;;;4970067;28;20085;-66
2023/07/06 09:07:43;;;;;;;6.88;1.77;;;;;;;;;;4963124;28;20049;-64
2023/07/06 09:10:17;;;;;;;7.03;2.05;;;;;;;;;;4966363;28;20041;-64
2023/07/06 09:12:43;;;;;;;6.75;2.28;;;;;;;;;;4968891;28;20537;-67
2023/07/06 09:15:10;;;;;;;5.95;1.65;;;;;;;;;;4969237;28;20126;-65
2023/07/06 09:17:52;;;;;;;5.13;1.90;;;;;;;;;;4970379;28;20039;-64
2023/07/06 09:20:20;;;;;;;5.15;1.67;;;;;;;;;;4965839;28;20042;-65
2023/07/06 09:22:47;;;;;;;4.05;1.33;;;;;;;;;;4969437;28;20105;-65
2023/07/06 09:25:42;;;;;;;6.28;1.65;;;;;;;;;;4967710;28;20461;-66
2023/07/06 09:28:12;;;;;;;4.50;1.60;;;;;;;;;;4964589;28;20527;-64
2023/07/06 09:30:39;;;;;;;6.53;1.80;;;;;;;;;;4969145;28;20667;-64
2023/07/06 09:33:17;;;;;;;5.03;1.60;;;;;;;;;;4972314;28;20051;-63
2023/07/06 09:35:43;;;;;;;6.57;1.83;;;;;;;;;;4971511;28;20121;-65
2023/07/06 09:38:12;;;;;;;5.55;1.90;;;;;;;;;;4972381;28;20053;-65
2023/07/06 09:40:38;;;;;;;4.80;1.77;;;;;;;;;;4971525;28;20090;-66
2023/07/06 09:43:04;;;;;;;4.95;1.40;;;;;;;;;;4973879;28;20039;-65
2023/07/06 09:45:31;;;;;;;4.72;1.55;;;;;;;;;;4966481;28;20234;-64
2023/07/06 09:48:13;;;;;;;5.05;1.92;;;;;;;;;;4971968;28;20046;-65
2023/07/06 09:50:43;;;;;;;5.65;1.48;;;;;;;;;;4972972;28;20035;-64
2023/07/06 09:53:11;;;;;;;5.20;1.83;;;;;;;;;;4974085;28;20428;-67
2023/07/06 09:55:37;;;;;;;5.40;1.95;;;;;;;;;;4972294;28;20513;-65
2023/07/06 09:58:08;;;;;;;6.40;1.58;;;;;;;;;;4972865;28;20108;-65
2023/07/06 10:00:39;;;;;;;5.80;1.88;;;;;;;;;;4972171;28;20098;-65
2023/07/06 10:03:08;;;;;;;6.82;2.22;;;;;;;;;;4974415;28;20404;-64
2023/07/06 10:05:46;;;;;;;5.57;2.03;;;;;;;;;;4973821;28;20042;-64
2023/07/06 10:08:16;;;;;;;5.50;1.90;;;;;;;;;;4975010;28;20128;-64
2023/07/06 10:10:52;;;;;;;4.65;1.70;;;;;;;;;;4973757;28;20046;-64
2023/07/06 10:13:26;;;;;;;5.82;1.95;;;;;;;;;;4974263;28;20462;-64
2023/07/06 10:15:56;;;;;;;6.32;2.20;;;;;;;;;;4974165;28;20041;-64
2023/07/06 10:18:30;;;;;;;5.72;2.10;;;;;;;;;;4974227;28;20089;-65
2023/07/06 10:20:59;;;;;;;4.65;1.73;;;;;;;;;;4974058;28;20042;-65
2023/07/06 10:23:35;;;;;;;4.72;2.08;;;;;;;;;;4973303;28;20043;-65
2023/07/06 10:26:10;;;;;;;5.53;2.05;;;;;;;;;;4974556;28;20034;-65
2023/07/06 10:28:38;;;;;;;4.93;1.83;;;;;;;;;;4973957;28;20125;-64
2023/07/06 10:31:07;;;;;;;5.70;2.60;;;;;;;;;;4973800;28;20042;-65
2023/07/06 10:33:54;;;;;;;5.72;2.45;;;;;;;;;;4973119;28;20047;-64
2023/07/06 10:36:20;;;;;;;8.18;2.38;;;;;;;;;;4963677;28;20050;-65
2023/07/06 10:38:50;;;;;;;5.40;2.00;;;;;;;;;;4973501;28;20047;-64
2023/07/06 10:41:21;;;;;;;5.82;2.47;;;;;;;;;;4972297;28;20114;-65
2023/07/06 10:43:49;;;;;;;6.05;1.90;;;;;;;;;;4971625;28;20042;-65
2023/07/06 10:46:35;;;;;;;5.50;2.00;;;;;;;;;;4972198;28;20043;-64
2023/07/06 10:49:18;;;;;;;5.30;1.52;;;;;;;;;;4966851;28;20038;-65
2023/07/06 10:51:49;;;;;;;6.93;1.73;;;;;;;;;;4973130;28;20070;-64
2023/07/06 10:54:21;;;;;;;6.35;1.95;;;;;;;;;;4973053;28;20038;-65
2023/07/06 10:57:00;;;;;;;4.90;1.80;;;;;;;;;;4971073;28;20054;-65
2023/07/06 10:59:32;;;;;;;6.43;1.77;;;;;;;;;;4973379;28;20051;-65
2023/07/06 11:02:14;;;;;;;6.20;1.65;;;;;;;;;;4972452;28;20512;-66
2023/07/06 11:04:44;;;;;;;5.85;1.60;;;;;;;;;;4972340;28;20050;-65
2023/07/06 11:07:11;;;;;;;5.28;1.92;;;;;;;;;;4973187;28;20097;-66
2023/07/06 11:09:47;;;;;;;4.80;1.70;;;;;;;;;;4973044;28;20088;-66
2023/07/06 11:12:18;;;;;;;5.80;2.00;;;;;;;;;;4972956;28;20492;-66
2023/07/06 11:14:45;;;;;;;6.00;1.63;;;;;;;;;;4954961;28;20431;-66
2023/07/06 11:17:13;;;;;;;6.30;1.70;;;;;;;;;;4971833;28;20061;-65
2023/07/06 11:19:41;;;;;;;4.43;1.60;;;;;;;;;;4972638;28;20042;-66
2023/07/06 11:22:09;;;;;;;5.38;1.73;;;;;;;;;;4972810;28;20039;-66
2023/07/06 11:24:39;;;;;;;8.75;1.70;;;;;;;;;;4972511;28;20208;-66
2023/07/06 11:27:26;;;;;;;5.05;2.00;;;;;;;;;;4972749;28;20496;-66
2023/07/06 11:30:01;;;;;;;5.55;1.92;;;;;;;;;;4971037;28;20046;-65
2023/07/06 11:32:32;;;;;;;6.57;2.50;;;;;;;;;;4971703;28;20497;-66
2023/07/06 11:35:02;;;;;;;5.07;1.70;;;;;;;;;;4969959;28;20061;-65
2023/07/06 11:37:34;;;;;;;6.68;1.80;;;;;;;;;;4971577;28;20488;-65
2023/07/06 11:40:06;;;;;;;5.07;2.03;;;;;;;;;;4970897;28;20109;-66
2023/07/06 11:42:35;;;;;;;4.90;1.75;;;;;;;;;;4972305;28;20449;-65
2023/07/06 11:45:25;;;;;;;7.15;2.55;;;;;;;;;;4968106;28;20058;-68
2023/07/06 11:48:10;;;;;;;6.22;1.85;;;;;;;;;;4936806;28;20505;-66
2023/07/06 11:50:37;;;;;;;5.00;2.17;;;;;;;;;;4971957;28;20051;-66
2023/07/06 11:53:17;;;;;;;5.65;1.50;;;;;;;;;;4972354;28;20121;-66
2023/07/06 11:55:54;;;;;;;6.30;2.17;;;;;;;;;;4971428;28;20054;-66
2023/07/06 11:58:29;;;;;;;4.65;1.90;;;;;;;;;;4965863;28;20125;-67
2023/07/06 12:01:00;;;;;;;6.50;1.90;;;;;;;;;;4970683;28;20094;-66
2023/07/06 12:03:26;;;;;;;6.22;2.28;;;;;;;;;;4967791;28;20039;-68
2023/07/06 12:06:00;;;;;;;5.95;1.98;;;;;;;;;;4970588;28;20117;-65
2023/07/06 12:08:27;;;;;;;5.00;2.25;;;;;;;;;;4970870;28;20050;-66
2023/07/06 12:10:56;;;;;;;5.55;2.50;;;;;;;;;;4968148;28;20054;-67
2023/07/06 12:13:27;;;;;;;8.20;2.22;;;;;;;;;;4970541;28;20043;-66
2023/07/06 12:16:15;;;;;;;7.97;2.67;;;;;;;;;;4969647;28;20074;-66
2023/07/06 12:18:44;;;;;;;5.78;2.00;;;;;;;;;;4971460;28;20134;-66
2023/07/06 12:21:34;;;;;;;8.18;2.33;;;;;;;;;;4971516;28;20054;-66
2023/07/06 12:24:05;;;;;;;7.18;2.40;;;;;;;;;;4960624;28;20050;-66
2023/07/06 12:26:32;;;;;;;4.75;1.75;;;;;;;;;;4971892;28;20559;-66
2023/07/06 12:28:58;;;;;;;6.78;1.85;;;;;;;;;;4970103;28;20389;-66
2023/07/06 12:31:26;;;;;;;6.82;1.90;;;;;;;;;;4971784;28;20043;-67
2023/07/06 12:33:55;;;;;;;5.30;1.75;;;;;;;;;;4970778;28;20118;-65
2023/07/06 12:36:23;;;;;;;8.73;2.42;;;;;;;;;;4971730;28;20038;-66
2023/07/06 12:38:53;;;;;;;4.60;1.67;;;;;;;;;;4971132;28;20512;-66
2023/07/06 12:41:20;;;;;;;8.32;2.33;;;;;;;;;;4966090;28;20496;-66
2023/07/06 12:43:46;;;;;;;6.03;2.20;;;;;;;;;;4970919;28;20039;-66
2023/07/06 12:46:12;;;;;;;6.65;1.80;;;;;;;;;;4954371;28;20034;-66
2023/07/06 12:48:46;;;;;;;5.13;1.80;;;;;;;;;;4971372;28;20485;-66
2023/07/06 12:51:14;;;;;;;5.20;2.08;;;;;;;;;;4971515;28;20385;-65
2023/07/06 12:53:40;;;;;;;6.50;1.92;;;;;;;;;;4963888;28;20057;-66
2023/07/06 12:56:09;;;;;;;6.75;1.98;;;;;;;;;;4971356;28;20471;-66
2023/07/06 12:58:36;;;;;;;6.75;1.70;;;;;;;;;;4954213;28;20050;-68
2023/07/06 13:01:04;;;;;;;4.28;1.50;;;;;;;;;;4970939;28;20079;-66
2023/07/06 13:03:30;;;;;;;5.80;1.58;;;;;;;;;;4970987;28;20521;-66
2023/07/06 13:05:57;;;;;;;5.72;1.60;;;;;;;;;;4971337;28;20038;-66
2023/07/06 13:08:24;;;;;;;4.82;1.75;;;;;;;;;;4974004;28;20057;-66
2023/07/06 13:10:59;;;;;;;5.85;1.70;;;;;;;;;;4974762;28;20039;-67
2023/07/06 13:13:25;;;;;;;5.32;1.70;;;;;;;;;;4973833;28;20125;-68
2023/07/06 13:16:00;;;;;;;5.57;1.92;;;;;;;;;;4974977;28;20046;-67
2023/07/06 13:18:27;;;;;;;6.78;1.92;;;;;;;;;;4974988;28;20039;-66
2023/07/06 13:20:53;;;;;;;6.65;2.05;;;;;;;;;;4972854;28;20050;-67
2023/07/06 13:23:20;;;;;;;5.57;1.83;;;;;;;;;;4974625;28;20429;-67
2023/07/06 13:25:49;;;;;;;6.20;1.85;;;;;;;;;;4973701;28;20038;-66
2023/07/06 13:28:20;;;;;;;8.10;1.70;;;;;;;;;;4967117;28;20401;-66
2023/07/06 13:30:47;;;;;;;6.25;2.08;;;;;;;;;;4974094;28;20039;-69
2023/07/06 13:33:13;;;;;;;6.13;1.77;;;;;;;;;;4966815;28;20041;-67
2023/07/06 13:35:42;;;;;;;5.20;1.63;;;;;;;;;;4972391;28;20057;-66
2023/07/06 13:38:10;;;;;;;4.78;1.55;;;;;;;;;;4973001;28;20050;-67
2023/07/06 13:40:37;;;;;;;5.82;1.90;;;;;;;;;;4974341;28;20047;-66
2023/07/06 13:43:04;;;;;;;6.18;1.90;;;;;;;;;;4974429;28;20047;-66
2023/07/06 13:45:37;;;;;;;5.57;1.70;;;;;;;;;;4973698;28;20046;-66
2023/07/06 13:48:03;;;;;;;7.55;2.35;;;;;;;;;;4972799;28;20043;-67
2023/07/06 13:50:31;;;;;;;6.18;2.22;;;;;;;;;;4968017;28;20421;-66
2023/07/06 13:52:57;;;;;;;7.72;2.35;;;23.80;99.90;;;;;;4971897;28;20042;-66
2023/07/06 13:55:32;;;;;;;5.75;1.85;;;23.70;99.90;;;;;;4973577;28;20042;-66
2023/07/06 13:57:58;;;;;;;7.18;2.40;;;24.30;99.90;;;;;;4973801;28;20038;-66
2023/07/06 14:00:27;;;;;;;7.28;2.50;;;23.90;99.90;;;;;;4972662;28;20042;-67
2023/07/06 14:02:54;;;;;;;6.07;2.10;;;23.90;99.90;;;;;;4955923;28;20050;-66
2023/07/06 14:05:21;;;;;;;6.20;2.15;;;23.70;99.90;;;;;;4973251;28;20405;-66
2023/07/06 14:07:47;;;;;;;6.70;1.92;;;23.80;99.90;;;;;;4973378;28;20400;-67
2023/07/06 14:10:17;;;;;;;5.57;1.88;;;23.70;99.90;;;;;;4973776;28;20342;-66
2023/07/06 14:12:44;;;;;;;7.50;2.42;;;23.90;99.90;;;;;;4973744;28;20421;-66
2023/07/06 14:15:10;;;;;;;6.47;2.33;;;23.90;99.90;;;;;;4973058;28;20035;-67
2023/07/06 14:17:36;;;;;;;10.50;2.97;;;23.90;99.90;;;;;;4973025;28;20042;-66
2023/07/06 14:20:03;;;;;;;6.45;2.80;;;23.60;99.90;;;;;;4973476;28;20500;-66
2023/07/06 14:22:29;;;;;;;8.60;2.80;;;23.30;99.90;;;;;;4973455;28;20039;-67
2023/07/06 14:24:55;;;;;;;6.22;2.20;;;23.20;99.90;;;;;;4971428;28;20042;-67
2023/07/06 14:27:20;;;;;;;7.68;2.10;;;23.00;99.90;;;;;;4972284;28;20037;-67
2023/07/06 14:29:49;;;;;;;6.25;2.08;;;22.70;99.90;;;;;;4972207;28;20050;-66
2023/07/06 14:32:15;;;;;;;5.70;2.20;;;22.20;99.90;;;;;;4968170;28;20352;-65
2023/07/06 14:34:47;;;;;;;7.00;2.33;;;22.40;99.90;;;;;;4972873;28;20043;-65
2023/07/06 14:37:15;;;;;;;6.63;1.98;;;22.60;99.90;;;;;;4971885;28;20043;-67
2023/07/06 14:39:41;;;;;;;7.22;2.17;;;22.40;99.90;;;;;;4973383;28;20400;-66
2023/07/06 14:42:07;;;;;;;6.97;2.70;;;22.40;99.90;;;;;;4972990;28;20031;-66